Simcha — PE7688 — position and weather

sailwx.info

Track history (hours):
 
Tides and Currents Weather Stations Pressure Air Temp Water Temp Dewpoint Dewpoint Depression Visibility Wind Speed Wind Dir Waves Ship Positions

Simcha

Last reported at 2016-Aug-27 08:33 UTC. Time now 2016-Aug-27 11:39 UTC.
Position N 51°34' E 006°41'.

Length 110 m.

Type: Ship. MMSI: 244780014.

Date/timePositionNaut miles runAvg speedWind from/ knotsBaromVisibWave heightAir tempDewpointWater temp
2016-Aug-27 08:33N 51°34' E 006°41'4 3.7
2016-Aug-27 07:33N 51°36' E 006°36'4 4.1
2016-Aug-27 06:33N 51°39' E 006°33'60 3.1
2016-Aug-26 11:07N 51°50' E 004°57'5 8.7
2016-Aug-26 10:34N 51°49' E 004°49'7 6.8
2016-Aug-26 09:33N 51°48' E 004°38'0 0.0
2016-Aug-26 08:33N 51°48' E 004°38'0 0.0
2016-Aug-26 07:33N 51°48' E 004°38'0 0.0
2016-Aug-26 06:33N 51°48' E 004°38'2 0.8
2016-Aug-26 04:34N 51°49' E 004°40'9 8.0
2016-Aug-26 03:28N 51°49' E 004°54'15 8.0
2016-Aug-26 01:32N 51°49' E 005°19'44 7.0
2016-Aug-25 19:14N 51°40' E 006°29'5 7.3
2016-Aug-25 18:33N 51°38' E 006°36'0 0.1
2016-Aug-25 15:04N 51°38' E 006°36'0 0.0
2016-Aug-25 08:14N 51°38' E 006°36'0 0.0
2016-Aug-25 07:26N 51°38' E 006°36'0 0.0
2016-Aug-25 06:31N 51°38' E 006°36'0 0.0
2016-Aug-25 04:33N 51°38' E 006°36'0 0.0
2016-Aug-25 03:33N 51°38' E 006°36'0 0.0
2016-Aug-25 02:31N 51°38' E 006°36'0 0.0
2016-Aug-25 01:30N 51°38' E 006°36'0 0.0
2016-Aug-25 00:32N 51°38' E 006°36'0 0.0
2016-Aug-24 23:33N 51°38' E 006°36'0 0.0
2016-Aug-24 22:31N 51°38' E 006°36'0 0.0
2016-Aug-24 21:31N 51°38' E 006°36'0 0.0
2016-Aug-24 20:32N 51°38' E 006°36'1 0.5
2016-Aug-24 19:33N 51°38' E 006°36'3 2.7
2016-Aug-24 18:34N 51°39' E 006°33'51 2.2
2016-Aug-23 19:21N 52°28' E 006°06'4 5.2
2016-Aug-23 18:33N 52°31' E 006°01'4 3.8
2016-Aug-23 17:33N 52°32' E 005°56'4 4.0
2016-Aug-23 16:33N 52°35' E 005°51'8 8.1
2016-Aug-23 15:33N 52°37' E 005°38'8 7.7
2016-Aug-23 14:33N 52°45' E 005°34'53 2.9
2016-Aug-22 20:33N 53°16' E 006°44'6 5.9
2016-Aug-22 19:34N 53°19' E 006°53'2 2.0
2016-Aug-22 18:33N 53°19' E 006°57'6 0.2
2016-Aug-21 19:08N 53°20' E 007°06'4 6.6
2016-Aug-21 18:33N 53°20' E 006°60'9 4.6
2016-Aug-21 16:31N 53°27' E 006°50'0 0.0
2016-Aug-21 15:33N 53°27' E 006°50'0 0.0
2016-Aug-21 14:33N 53°27' E 006°50'0 0.0
2016-Aug-21 13:33N 53°27' E 006°50'0 0.0
2016-Aug-21 12:26N 53°27' E 006°50'0 0.0
2016-Aug-21 11:33N 53°27' E 006°50'0 0.0
2016-Aug-21 08:13N 53°27' E 006°50'0 0.0
2016-Aug-21 07:33N 53°27' E 006°50'0 0.0
2016-Aug-21 03:33N 53°27' E 006°50'0 0.0
2016-Aug-21 02:32N 53°27' E 006°50'0 0.0
2016-Aug-21 01:33N 53°27' E 006°50'0 0.0
2016-Aug-21 00:33N 53°27' E 006°50'0 0.0
2016-Aug-20 23:28N 53°27' E 006°50'0 0.0
2016-Aug-20 19:21N 53°27' E 006°50'0 0.0
2016-Aug-20 18:32N 53°27' E 006°50'0 0.0
2016-Aug-20 17:33N 53°27' E 006°50'4 3.7
2016-Aug-20 16:24N 53°25' E 006°56'6 5.5
2016-Aug-20 15:20N 53°19' E 006°57'1 0.8
2016-Aug-20 14:33N 53°20' E 006°56'0 0.0
2016-Aug-20 13:33N 53°20' E 006°56'2 1.9
2016-Aug-20 12:33N 53°19' E 006°53'5 4.7
2016-Aug-20 11:32N 53°17' E 006°46'51 2.1
2016-Aug-19 11:33N 52°48' E 005°37'6 6.4
2016-Aug-19 10:33N 52°42' E 005°34'6 1.5
2016-Aug-19 06:20N 52°36' E 005°39'0 0.0
2016-Aug-19 04:33N 52°36' E 005°39'0 0.1
2016-Aug-19 03:33N 52°36' E 005°39'6 5.4
2016-Aug-19 02:30N 52°35' E 005°49'6 6.1
2016-Aug-19 01:33N 52°32' E 005°57'5 4.8
2016-Aug-19 00:31N 52°29' E 006°04'52 4.7
2016-Aug-18 13:23N 51°40' E 006°29'5 6.2
2016-Aug-18 12:33N 51°37' E 006°36'23 4.6
2016-Aug-18 07:33N 51°14' E 006°46'4 3.8
2016-Aug-18 06:33N 51°11' E 006°48'  
Track history (hours):
 
Tides and Currents Weather Stations Pressure Air Temp Water Temp Dewpoint Dewpoint Depression Visibility Wind Speed Wind Dir Waves Ship Positions

Simcha

Last reported at 2016-Aug-27 08:33 UTC. Time now 2016-Aug-27 11:39 UTC.
Position N 51°34' E 006°41'.

Length 110 m.

Type: Ship. MMSI: 244780014.

Date/timePositionNaut miles runAvg speedWind from/ knotsBaromVisibWave heightAir tempDewpointWater temp
2016-Aug-27 08:33N 51°34' E 006°41'4 3.7
2016-Aug-27 07:33N 51°36' E 006°36'4 4.1
2016-Aug-27 06:33N 51°39' E 006°33'60 3.1
2016-Aug-26 11:07N 51°50' E 004°57'5 8.7
2016-Aug-26 10:34N 51°49' E 004°49'7 6.8
2016-Aug-26 09:33N 51°48' E 004°38'0 0.0
2016-Aug-26 08:33N 51°48' E 004°38'0 0.0
2016-Aug-26 07:33N 51°48' E 004°38'0 0.0
2016-Aug-26 06:33N 51°48' E 004°38'2 0.8
2016-Aug-26 04:34N 51°49' E 004°40'9 8.0
2016-Aug-26 03:28N 51°49' E 004°54'15 8.0
2016-Aug-26 01:32N 51°49' E 005°19'44 7.0
2016-Aug-25 19:14N 51°40' E 006°29'5 7.3
2016-Aug-25 18:33N 51°38' E 006°36'0 0.1
2016-Aug-25 15:04N 51°38' E 006°36'0 0.0
2016-Aug-25 08:14N 51°38' E 006°36'0 0.0
2016-Aug-25 07:26N 51°38' E 006°36'0 0.0
2016-Aug-25 06:31N 51°38' E 006°36'0 0.0
2016-Aug-25 04:33N 51°38' E 006°36'0 0.0
2016-Aug-25 03:33N 51°38' E 006°36'0 0.0
2016-Aug-25 02:31N 51°38' E 006°36'0 0.0
2016-Aug-25 01:30N 51°38' E 006°36'0 0.0
2016-Aug-25 00:32N 51°38' E 006°36'0 0.0
2016-Aug-24 23:33N 51°38' E 006°36'0 0.0
2016-Aug-24 22:31N 51°38' E 006°36'0 0.0
2016-Aug-24 21:31N 51°38' E 006°36'0 0.0
2016-Aug-24 20:32N 51°38' E 006°36'1 0.5
2016-Aug-24 19:33N 51°38' E 006°36'3 2.7
2016-Aug-24 18:34N 51°39' E 006°33'51 2.2
2016-Aug-23 19:21N 52°28' E 006°06'4 5.2
2016-Aug-23 18:33N 52°31' E 006°01'4 3.8
2016-Aug-23 17:33N 52°32' E 005°56'4 4.0
2016-Aug-23 16:33N 52°35' E 005°51'8 8.1
2016-Aug-23 15:33N 52°37' E 005°38'8 7.7
2016-Aug-23 14:33N 52°45' E 005°34'53 2.9
2016-Aug-22 20:33N 53°16' E 006°44'6 5.9
2016-Aug-22 19:34N 53°19' E 006°53'2 2.0
2016-Aug-22 18:33N 53°19' E 006°57'6 0.2
2016-Aug-21 19:08N 53°20' E 007°06'4 6.6
2016-Aug-21 18:33N 53°20' E 006°60'9 4.6
2016-Aug-21 16:31N 53°27' E 006°50'0 0.0
2016-Aug-21 15:33N 53°27' E 006°50'0 0.0
2016-Aug-21 14:33N 53°27' E 006°50'0 0.0
2016-Aug-21 13:33N 53°27' E 006°50'0 0.0
2016-Aug-21 12:26N 53°27' E 006°50'0 0.0
2016-Aug-21 11:33N 53°27' E 006°50'0 0.0
2016-Aug-21 08:13N 53°27' E 006°50'0 0.0
2016-Aug-21 07:33N 53°27' E 006°50'0 0.0
2016-Aug-21 03:33N 53°27' E 006°50'0 0.0
2016-Aug-21 02:32N 53°27' E 006°50'0 0.0
2016-Aug-21 01:33N 53°27' E 006°50'0 0.0
2016-Aug-21 00:33N 53°27' E 006°50'0 0.0
2016-Aug-20 23:28N 53°27' E 006°50'0 0.0
2016-Aug-20 19:21N 53°27' E 006°50'0 0.0
2016-Aug-20 18:32N 53°27' E 006°50'0 0.0
2016-Aug-20 17:33N 53°27' E 006°50'4 3.7
2016-Aug-20 16:24N 53°25' E 006°56'6 5.5
2016-Aug-20 15:20N 53°19' E 006°57'1 0.8
2016-Aug-20 14:33N 53°20' E 006°56'0 0.0
2016-Aug-20 13:33N 53°20' E 006°56'2 1.9
2016-Aug-20 12:33N 53°19' E 006°53'5 4.7
2016-Aug-20 11:32N 53°17' E 006°46'51 2.1
2016-Aug-19 11:33N 52°48' E 005°37'6 6.4
2016-Aug-19 10:33N 52°42' E 005°34'6 1.5
2016-Aug-19 06:20N 52°36' E 005°39'0 0.0
2016-Aug-19 04:33N 52°36' E 005°39'0 0.1
2016-Aug-19 03:33N 52°36' E 005°39'6 5.4
2016-Aug-19 02:30N 52°35' E 005°49'6 6.1
2016-Aug-19 01:33N 52°32' E 005°57'5 4.8
2016-Aug-19 00:31N 52°29' E 006°04'52 4.7
2016-Aug-18 13:23N 51°40' E 006°29'5 6.2
2016-Aug-18 12:33N 51°37' E 006°36'23 4.6
2016-Aug-18 07:33N 51°14' E 006°46'4 3.8
2016-Aug-18 06:33N 51°11' E 006°48'  

Dump ship's entire track history